Wetterstation-Oberesslingen
Wetterdaten: aktuell Samstag, 16.10.2021 04:05
Datum Zeit Temperatur BodenT. -10 Temp+5cm Luftfeuchte Bod.Feuchte Luftdruck Regen Wind Richtung Richtung Sonnenschein ET Solar Taupunkt Windchill Windben
16.10.2021 04:05 7,2 C 11,7 C 6,7 C 95 % 44 cb 1021,3 hPa 0,0 l/m 1,1 km/h (1 Bft) N 0 0 min 0,000 mm 0 W/m 6,5 C 7,2 C 0,0 km/h (0 Bft)
16.10.2021 03:05 7,0 C 11,7 C 6,1 C 95 % 44 cb 1021,6 hPa 0,0 l/m 1,1 km/h (1 Bft) N 0 0 min 0,000 mm 0 W/m 6,3 C 7,0 C 0,0 km/h (0 Bft)
16.10.2021 02:05 6,9 C 11,7 C 4,4 C 95 % 44 cb 1021,7 hPa 0,0 l/m 1,1 km/h (1 Bft) O 90 0 min 0,000 mm 0 W/m 6,2 C 6,9 C 1,6 km/h (1 Bft)
16.10.2021 01:05 6,7 C 11,7 C 3,9 C 95 % 44 cb 1021,4 hPa 0,0 l/m 1,1 km/h (1 Bft) N 0 0 min 0,000 mm 0 W/m 6,0 C 6,7 C 0,0 km/h (0 Bft)
16.10.2021 00:05 6,7 C 11,7 C 6,1 C 96 % 44 cb 1021,6 hPa 0,0 l/m 1,1 km/h (1 Bft) N 0 0 min 0,000 mm 0 W/m 6,1 C 6,7 C 0,0 km/h (0 Bft)
15.10.2021 23:05 7,0 C 11,7 C 3,3 C 94 % 43 cb 1021,4 hPa 0,0 l/m 1,1 km/h (1 Bft) N-NW 337 0 min 0,000 mm 0 W/m 6,1 C 7,0 C 1,6 km/h (1 Bft)
15.10.2021 22:05 7,0 C 11,7 C 3,9 C 93 % 43 cb 1021,2 hPa 0,0 l/m 1,1 km/h (1 Bft) N 0 0 min 0,000 mm 0 W/m 5,9 C 7,0 C 0,0 km/h (0 Bft)
15.10.2021 21:05 6,7 C 12,2 C 2,2 C 93 % 44 cb 1020,9 hPa 0,0 l/m 1,1 km/h (1 Bft) N 0 0 min 0,000 mm 0 W/m 5,6 C 6,7 C 0,0 km/h (0 Bft)
15.10.2021 20:05 7,9 C 12,2 C 3,9 C 90 % 43 cb 1020,3 hPa 0,0 l/m 1,1 km/h (1 Bft) N 0 0 min 0,000 mm 0 W/m 6,4 C 7,9 C 0,0 km/h (0 Bft)
15.10.2021 19:05 9,7 C 12,2 C 4,4 C 86 % 43 cb 1019,9 hPa 0,0 l/m 1,1 km/h (1 Bft) N 0 0 min 0,000 mm 0 W/m 7,5 C 9,7 C 0,0 km/h (0 Bft)
15.10.2021 18:05 12,5 C 11,7 C 8,9 C 76 % 42 cb 1019,2 hPa 0,0 l/m 1,1 km/h (1 Bft) N 0 0 min 0,025 mm 23 W/m 8,4 C 12,5 C 0,0 km/h (0 Bft)
15.10.2021 17:05 14,3 C 11,7 C 13,9 C 67 % 42 cb 1019,2 hPa 0,0 l/m 2,7 km/h (1 Bft) W-NW 292 0 min 0,076 mm 84 W/m 8,3 C 14,3 C 6,4 km/h (2 Bft)
15.10.2021 16:05 14,9 C 11,7 C 16,1 C 64 % 42 cb 1019,1 hPa 0,0 l/m 2,7 km/h (1 Bft) NW 315 10 min 0,127 mm 135 W/m 8,2 C 14,9 C 3,2 km/h (1 Bft)
15.10.2021 15:05 15,3 C 11,1 C 18,3 C 65 % 41 cb 1019,1 hPa 0,0 l/m 4,3 km/h (1 Bft) N-NW 337 50 min 0,203 mm 195 W/m 8,8 C 15,3 C 4,8 km/h (1 Bft)
15.10.2021 14:05 15,8 C 11,1 C 21,1 C 63 % 42 cb 1019,2 hPa 0,0 l/m 4,3 km/h (1 Bft) W 270 60 min 0,254 mm 390 W/m 8,8 C 15,8 C 4,8 km/h (1 Bft)
15.10.2021 13:05 13,6 C 11,1 C 24,4 C 65 % 42 cb 1019,8 hPa 0,0 l/m 2,7 km/h (1 Bft) S-SO 157 60 min 0,229 mm 473 W/m 7,1 C 13,6 C 3,2 km/h (1 Bft)
15.10.2021 12:05 11,3 C 11,1 C 22,8 C 76 % 42 cb 1020,4 hPa 0,0 l/m 2,7 km/h (1 Bft) S-SO 157 60 min 0,178 mm 436 W/m 7,2 C 11,3 C 4,8 km/h (1 Bft)
15.10.2021 11:05 8,6 C 11,1 C 16,1 C 83 % 43 cb 1020,6 hPa 0,0 l/m 2,7 km/h (1 Bft) O 90 50 min 0,102 mm 323 W/m 5,9 C 8,6 C 4,8 km/h (1 Bft)
15.10.2021 10:05 6,0 C 11,1 C 11,1 C 89 % 43 cb 1020,7 hPa 0,0 l/m 4,3 km/h (1 Bft) S-SO 157 50 min 0,051 mm 258 W/m 4,3 C 6,0 C 6,4 km/h (2 Bft)
15.10.2021 09:05 3,6 C 11,1 C 3,3 C 95 % 43 cb 1020,6 hPa 0,0 l/m 2,7 km/h (1 Bft) SO 135 0 min 0,000 mm 60 W/m 2,9 C 3,6 C 4,8 km/h (1 Bft)
15.10.2021 08:05 2,7 C 11,1 C 1,1 C 96 % 43 cb 1020,4 hPa 0,0 l/m 1,1 km/h (1 Bft) N 0 15 min 0,000 mm 28 W/m 2,1 C 2,7 C 0,0 km/h (0 Bft)
15.10.2021 07:05 2,7 C 11,1 C 0,6 C 96 % 42 cb 1020,5 hPa 0,0 l/m 2,7 km/h (1 Bft) S-SO 157 0 min 0,000 mm 0 W/m 2,1 C 2,7 C 3,2 km/h (1 Bft)
15.10.2021 06:05 2,6 C 11,1 C -0,6 C 96 % 42 cb 1020,8 hPa 0,0 l/m 1,1 km/h (1 Bft) SO 135 0 min 0,000 mm 0 W/m 2,0 C 2,6 C 1,6 km/h (1 Bft)
15.10.2021 05:05 3,2 C 11,7 C 0,6 C 96 % 43 cb 1021,2 hPa 0,0 l/m 2,7 km/h (1 Bft) SO 135 0 min 0,000 mm 0 W/m 2,6 C 3,2 C 3,2 km/h (1 Bft)
15.10.2021 05:00 3,1 C 11,7 C 0,6 C 96 % 43 cb 1021,1 hPa 0,0 l/m 2,7 km/h (1 Bft) SO 135 0 min 0,000 mm 0 W/m 2,5 C 3,1 C 3,2 km/h (1 Bft)
_ Min-Zeit 06:05 05:50 05:55 14:45 14:45 15:30 - 05:10 - - - - - 07:40 06:05 08:00
Minimum _ 2,6 C 11,1 C -0,6 C 61 % 41 cb 1019,0 hPa - 1,1 km/h (1 Bft) - - - - - 2,0 C 2,6 C 0,0 km/h (0 Bft)
_ Max-Zeit 14:35 18:40 12:35 05:00 20:50 02:10 05:00 09:50 - - 07:55 14:00 13:50 13:55 14:35 15:15
Maximum _ 16,1 C 12,2 C 27,2 C 96 % 44 cb 1021,8 hPa 0,0 l/m 4,3 km/h
O-SO (1 Bft)
- - 5 min 0,254 mm 497 W/m 9,5 C 16,1 C 11,3 km/h
O-SO (2 Bft)
Durchschnitt _ 8,0 C 11,5 C 8,3 C 86 % 43 cb 1020,5 hPa #0,0 l/m 1,9 km/h (1 Bft) N - #0 min. #0,000 mm 0 W/m 5,7 C 8,0 C 2,7 km/h (1 Bft)